Ship Status Report: callsign 3EMH6

sailwx.info

Track history (hours):
 
Tides and Currents Weather Stations Pressure Air Temp Water Temp Dewpoint Dewpoint Depression Visibility Wind Speed Wind Dir Waves Ship Positions

Callsign 3EMH6 (name unknown)

Last reported at 2014-Dec-19 10:22 UTC. Time now 2015-May-30 00:11 UTC.
Position N 36°07' W 005°18'.
Warning: this ship's position is months out of date.

Date/timePositionNaut miles runAvg speedWind from/ knotsBaromVisibWave heightAir tempDewpointWater temp
2014-Dec-19 10:22N 36°07' W 005°18'0 0.1
2014-Dec-19 09:22N 36°08' W 005°19'0 0.1
2014-Dec-19 08:31N 36°07' W 005°19'0 0.0
2014-Dec-19 07:31N 36°07' W 005°19'0 0.0
2014-Dec-19 06:31N 36°07' W 005°19'0 0.0
2014-Dec-19 05:31N 36°07' W 005°19'0 0.0
2014-Dec-19 04:31N 36°07' W 005°19'0 0.1
2014-Dec-19 03:19N 36°07' W 005°18'0 0.0
2014-Dec-19 02:31N 36°07' W 005°18'0 0.0
2014-Dec-19 01:31N 36°08' W 005°18'0 0.0
2014-Dec-19 00:31N 36°07' W 005°18'0 0.0
2014-Dec-18 23:31N 36°07' W 005°18'0 0.0
2014-Dec-18 22:13N 36°07' W 005°18'0 0.1
2014-Dec-18 21:31N 36°07' W 005°19'0 0.1
2014-Dec-18 20:31N 36°08' W 005°18'0 0.1
2014-Dec-18 19:31N 36°08' W 005°18'0 0.1
2014-Dec-18 18:33N 36°08' W 005°18'3 3.5
2014-Dec-18 17:33N 36°06' W 005°22'2 2.2
2014-Dec-18 16:26N 36°08' W 005°22'0 0.1
2014-Dec-18 15:32N 36°08' W 005°22'0 0.0
2014-Dec-18 14:32N 36°08' W 005°22'0 0.0
2014-Dec-18 13:32N 36°08' W 005°22'0 0.1
2014-Dec-18 12:33N 36°08' W 005°22'0 0.0
2014-Dec-18 11:26N 36°08' W 005°22'0 0.0
2014-Dec-18 10:32N 36°08' W 005°22'0 0.1
2014-Dec-18 09:26N 36°08' W 005°22'0 0.0
2014-Dec-18 08:32N 36°08' W 005°22'0 0.0
2014-Dec-18 07:32N 36°08' W 005°22'2 2.3
2014-Dec-18 06:32N 36°06' W 005°22'3 2.9
2014-Dec-18 05:33N 36°06' W 005°19'4 4.1
2014-Dec-18 04:33N 36°07' W 005°14'  
Track history (hours):
 
Tides and Currents Weather Stations Pressure Air Temp Water Temp Dewpoint Dewpoint Depression Visibility Wind Speed Wind Dir Waves Ship Positions

Callsign 3EMH6 (name unknown)

Last reported at 2014-Dec-19 10:22 UTC. Time now 2015-May-30 00:11 UTC.
Position N 36°07' W 005°18'.
Warning: this ship's position is months out of date.

Date/timePositionNaut miles runAvg speedWind from/ knotsBaromVisibWave heightAir tempDewpointWater temp
2014-Dec-19 10:22N 36°07' W 005°18'0 0.1
2014-Dec-19 09:22N 36°08' W 005°19'0 0.1
2014-Dec-19 08:31N 36°07' W 005°19'0 0.0
2014-Dec-19 07:31N 36°07' W 005°19'0 0.0
2014-Dec-19 06:31N 36°07' W 005°19'0 0.0
2014-Dec-19 05:31N 36°07' W 005°19'0 0.0
2014-Dec-19 04:31N 36°07' W 005°19'0 0.1
2014-Dec-19 03:19N 36°07' W 005°18'0 0.0
2014-Dec-19 02:31N 36°07' W 005°18'0 0.0
2014-Dec-19 01:31N 36°08' W 005°18'0 0.0
2014-Dec-19 00:31N 36°07' W 005°18'0 0.0
2014-Dec-18 23:31N 36°07' W 005°18'0 0.0
2014-Dec-18 22:13N 36°07' W 005°18'0 0.1
2014-Dec-18 21:31N 36°07' W 005°19'0 0.1
2014-Dec-18 20:31N 36°08' W 005°18'0 0.1
2014-Dec-18 19:31N 36°08' W 005°18'0 0.1
2014-Dec-18 18:33N 36°08' W 005°18'3 3.5
2014-Dec-18 17:33N 36°06' W 005°22'2 2.2
2014-Dec-18 16:26N 36°08' W 005°22'0 0.1
2014-Dec-18 15:32N 36°08' W 005°22'0 0.0
2014-Dec-18 14:32N 36°08' W 005°22'0 0.0
2014-Dec-18 13:32N 36°08' W 005°22'0 0.1
2014-Dec-18 12:33N 36°08' W 005°22'0 0.0
2014-Dec-18 11:26N 36°08' W 005°22'0 0.0
2014-Dec-18 10:32N 36°08' W 005°22'0 0.1
2014-Dec-18 09:26N 36°08' W 005°22'0 0.0
2014-Dec-18 08:32N 36°08' W 005°22'0 0.0
2014-Dec-18 07:32N 36°08' W 005°22'2 2.3
2014-Dec-18 06:32N 36°06' W 005°22'3 2.9
2014-Dec-18 05:33N 36°06' W 005°19'4 4.1
2014-Dec-18 04:33N 36°07' W 005°14'  

Dump ship's entire track history